Terminal Aerodrome Forecast
Issued by NWS

Home | Current Version | Previous Version | Text Only | Print | Product List | Glossary On
Versions: 1 2 3 4 5 6 7 8 9 10 11 12 13 14 15 16 17 18 19 20 21 22 23 24 25 26 27 28 29 30 31 32 33 34 35 36 37 38 39 40 41 42 43 44 45 46 47 48 49 50
000
FTAK31 PANC 290812 AAA
TAFACD
TAF AMD
PACD 290812Z 2908/3006 32012KT P6SM BKN009 BKN012
      TEMPO 2908/2910 SCT009
     FM291000 31011KT 2SM BR OVC007
     FM291200 31010KT 3/4SM BR VV005
     FM292000 33010KT P6SM SCT005 BKN008
     FM292200 31011KT P6SM SCT005 BKN015=

USA.gov is the U.S. government's official web portal to all federal, state and local government web resources and services.